Earl Park, Indiana
Current Conditions -  °F | °C
As of 3:15 PM on Thursday 29 Jan 2015 (Local Time) from KRZL Reporting Station
Overcast Overcast  
Wind Chill: 26°   Ceiling: 2800
Heat Index: 34°   Visibility: 7mi
Dew Point: 32°   Wind: 10mph
Humidity: 93%   Direction: 300°WNW
Pressure: 29.99"   Gusts: 22mph
Location:  40.68°N, 87.41°W
Report Text: KRZL 292015Z AUTO 30009G19KT 7SM SCT023 OVC028 01/00 A2999 RMK AO2
Loading
Personal Weather Stations






























Interactive Weather Map New forecast layout! Learn more

10-Day Weather Forecast

Advertisements
Track Severe Weather on mobile